createdAt,value
2018-05-17T00:02:04.275Z,99231.91
2018-05-17T00:04:31.884Z,99222.80
2018-05-17T00:06:59.621Z,99219.77
2018-05-17T00:09:27.263Z,99225.64
2018-05-17T00:11:54.911Z,99226.13
2018-05-17T00:14:22.594Z,99225.52
2018-05-17T00:16:50.192Z,99221.53
2018-05-17T00:19:17.896Z,99221.64
2018-05-17T00:21:45.718Z,99231.09
2018-05-17T00:24:13.387Z,99230.81
2018-05-17T00:26:41.047Z,99236.47
2018-05-17T00:29:08.729Z,99238.33
2018-05-17T00:31:36.337Z,99234.19
2018-05-17T00:34:04.029Z,99235.65
2018-05-17T00:36:31.733Z,99222.56
2018-05-17T00:38:59.352Z,99224.81
2018-05-17T00:41:26.984Z,99219.88
2018-05-17T00:43:55.181Z,99223.17
2018-05-17T00:46:22.795Z,99219.34
2018-05-17T00:48:50.404Z,99229.50
2018-05-17T00:51:18.119Z,99227.81
2018-05-17T00:53:45.704Z,99237.77
2018-05-17T00:56:13.354Z,99240.00
2018-05-17T00:58:41.165Z,99232.91
2018-05-17T01:01:08.905Z,99244.89
2018-05-17T01:03:36.557Z,99239.27
2018-05-17T01:08:31.275Z,99227.92
2018-05-17T01:10:58.962Z,99227.48
2018-05-17T01:13:26.768Z,99223.14
2018-05-17T01:15:54.445Z,99220.52
2018-05-17T01:18:22.132Z,99218.48
2018-05-17T01:20:49.970Z,99214.70
2018-05-17T01:23:17.601Z,99218.41
2018-05-17T01:25:45.291Z,99222.01
2018-05-17T01:28:13.056Z,99226.23
2018-05-17T01:30:40.661Z,99231.86
2018-05-17T01:33:08.282Z,99234.55
2018-05-17T01:35:35.958Z,99227.38
2018-05-17T01:38:15.330Z,99231.23
2018-05-17T01:40:43.417Z,99233.71
2018-05-17T01:43:11.034Z,99231.31
2018-05-17T01:45:38.649Z,99235.95
2018-05-17T01:48:06.335Z,99233.78
2018-05-17T01:50:33.960Z,99241.72
2018-05-17T01:53:01.594Z,99240.95
2018-05-17T01:55:29.357Z,99235.61
2018-05-17T01:57:56.948Z,99233.00
2018-05-17T02:00:24.599Z,99235.80
2018-05-17T02:02:52.487Z,99234.11
2018-05-17T02:05:20.112Z,99231.99
2018-05-17T02:07:47.829Z,99229.47
2018-05-17T02:10:15.505Z,99221.09
2018-05-17T02:12:43.117Z,99223.50
2018-05-17T02:15:10.728Z,99225.81
2018-05-17T02:17:38.927Z,99221.17
2018-05-17T02:20:06.538Z,99222.56
2018-05-17T02:22:34.117Z,99220.38
2018-05-17T02:25:01.819Z,99226.72
2018-05-17T02:27:29.467Z,99221.80
2018-05-17T02:29:57.200Z,99219.41
2018-05-17T02:32:25.291Z,99223.54
2018-05-17T02:34:52.929Z,99221.94
2018-05-17T02:37:20.528Z,99222.50
2018-05-17T02:39:48.344Z,99222.73
2018-05-17T02:42:16.107Z,99223.97
2018-05-17T02:44:43.685Z,99225.73
2018-05-17T02:47:11.839Z,99230.41
2018-05-17T02:49:39.455Z,99225.81
2018-05-17T02:52:07.101Z,99227.59
2018-05-17T02:54:34.898Z,99227.66
2018-05-17T02:57:02.624Z,99236.95
2018-05-17T02:59:30.234Z,99245.68
2018-05-17T03:01:57.924Z,99255.47
2018-05-17T03:04:25.562Z,99247.28
2018-05-17T03:06:53.264Z,99243.84
2018-05-17T03:09:20.912Z,99236.39
2018-05-17T03:11:48.533Z,99236.80
2018-05-17T03:14:16.247Z,99231.87
2018-05-17T03:16:44.065Z,99234.05
2018-05-17T03:19:11.789Z,99241.37
2018-05-17T03:21:39.415Z,99243.70
2018-05-17T03:24:07.120Z,99239.97
2018-05-17T03:26:34.705Z,99249.89
2018-05-17T03:29:02.355Z,99248.48
2018-05-17T03:31:30.088Z,99254.53
2018-05-17T03:33:57.666Z,99260.76
2018-05-17T03:36:25.362Z,99255.45
2018-05-17T03:38:53.989Z,99259.67
2018-05-17T03:41:21.684Z,99262.86
2018-05-17T03:43:49.337Z,99268.20
2018-05-17T03:46:17.034Z,99273.57
2018-05-17T03:48:44.684Z,99280.81
2018-05-17T03:51:12.341Z,99282.13
2018-05-17T03:53:40.189Z,99282.86
2018-05-17T03:56:07.850Z,99280.39
2018-05-17T03:58:35.514Z,99282.13
2018-05-17T04:01:14.995Z,99276.22
2018-05-17T04:03:54.451Z,99278.48
2018-05-17T04:06:33.834Z,99289.91
2018-05-17T04:09:01.597Z,99293.41
2018-05-17T04:11:29.189Z,99298.80
2018-05-17T04:13:57.192Z,99311.18
2018-05-17T04:16:24.742Z,99313.66
2018-05-17T04:18:52.391Z,99310.06
2018-05-17T04:21:20.126Z,99323.39
2018-05-17T04:23:47.748Z,99322.69
2018-05-17T04:26:16.369Z,99323.59
2018-05-17T04:28:44.479Z,99320.92
2018-05-17T04:31:12.183Z,99312.14
2018-05-17T04:33:39.785Z,99305.53
2018-05-17T04:36:07.521Z,99309.71
2018-05-17T04:38:35.103Z,99315.04
2018-05-17T04:41:02.685Z,99319.14
2018-05-17T04:43:30.296Z,99319.94
2018-05-17T04:45:57.906Z,99320.06
2018-05-17T04:48:26.573Z,99317.95
2018-05-17T04:50:54.291Z,99319.06
2018-05-17T04:53:21.882Z,99325.80
2018-05-17T04:55:49.545Z,99326.33
2018-05-17T04:58:17.418Z,99321.90
2018-05-17T05:00:45.097Z,99325.55
2018-05-17T05:03:12.733Z,99324.89
2018-05-17T05:05:40.452Z,99331.09
2018-05-17T05:08:08.054Z,99334.34
2018-05-17T05:10:35.707Z,99337.67
2018-05-17T05:13:03.887Z,99330.75
2018-05-17T05:15:37.854Z,99330.73
2018-05-17T05:18:06.084Z,99325.88
2018-05-17T05:20:33.708Z,99327.95
2018-05-17T05:23:01.359Z,99326.19
2018-05-17T05:25:29.290Z,99322.52
2018-05-17T05:27:56.912Z,99324.34
2018-05-17T05:30:24.517Z,99320.92
2018-05-17T05:32:52.499Z,99313.78
2018-05-17T05:35:20.074Z,99319.64
2018-05-17T05:37:47.670Z,99327.54
2018-05-17T05:40:15.382Z,99325.88
2018-05-17T05:42:42.961Z,99333.67
2018-05-17T05:45:10.572Z,99335.02
2018-05-17T05:47:39.088Z,99333.48
2018-05-17T05:50:06.712Z,99335.23
2018-05-17T05:52:34.289Z,99331.59
2018-05-17T05:55:02.094Z,99330.56
2018-05-17T05:57:29.719Z,99325.59
2018-05-17T05:59:57.281Z,99324.67
2018-05-17T06:02:24.998Z,99329.56
2018-05-17T06:04:52.983Z,99318.23
2018-05-17T06:07:20.543Z,99316.94
2018-05-17T06:09:48.296Z,99323.95
2018-05-17T06:12:15.885Z,99318.58
2018-05-17T06:14:43.440Z,99324.83
2018-05-17T06:17:11.379Z,99326.70
2018-05-17T06:19:38.926Z,99327.84
2018-05-17T06:22:06.474Z,99329.28
2018-05-17T06:24:34.563Z,99323.30
2018-05-17T06:27:02.126Z,99327.63
2018-05-17T06:29:29.683Z,99325.75
2018-05-17T06:31:57.412Z,99327.83
2018-05-17T06:34:24.983Z,99323.28
2018-05-17T06:36:52.576Z,99325.47
2018-05-17T06:39:20.311Z,99324.70
2018-05-17T06:41:47.870Z,99327.09
2018-05-17T06:44:15.449Z,99326.94
2018-05-17T06:46:43.049Z,99325.32
2018-05-17T06:49:10.594Z,99325.57
2018-05-17T06:51:38.230Z,99318.56
2018-05-17T06:54:06.267Z,99320.08
2018-05-17T06:56:33.850Z,99322.04
2018-05-17T06:59:01.416Z,99325.38
2018-05-17T07:01:30.468Z,99319.94
2018-05-17T07:03:58.037Z,99319.13
2018-05-17T07:06:25.605Z,99313.48
2018-05-17T07:08:53.354Z,99317.89
2018-05-17T07:11:20.917Z,99316.50
2018-05-17T07:13:48.472Z,99310.64
2018-05-17T07:16:16.062Z,99311.91
2018-05-17T07:18:44.001Z,99318.05
2018-05-17T07:21:11.226Z,99323.94
2018-05-17T07:23:39.219Z,99318.64
2018-05-17T07:26:06.792Z,99316.92
2018-05-17T07:28:34.351Z,99314.79
2018-05-17T07:31:02.398Z,99319.81
2018-05-17T07:33:29.986Z,99321.53
2018-05-17T07:35:57.554Z,99314.63
2018-05-17T07:38:25.545Z,99312.39
2018-05-17T07:40:53.120Z,99311.50
2018-05-17T07:43:20.692Z,99314.20
2018-05-17T07:45:48.282Z,99311.96
2018-05-17T07:48:15.837Z,99300.86
2018-05-17T07:50:43.390Z,99302.63
2018-05-17T07:53:10.975Z,99309.38
2018-05-17T07:55:38.606Z,99301.47
2018-05-17T07:58:06.148Z,99300.58
2018-05-17T08:00:33.931Z,99304.52
2018-05-17T08:03:01.529Z,99300.80
2018-05-17T08:05:29.110Z,99302.91
2018-05-17T08:07:57.074Z,99308.64
2018-05-17T08:10:24.659Z,99304.28
2018-05-17T08:12:52.313Z,99304.42
2018-05-17T08:15:20.004Z,99309.83
2018-05-17T08:17:47.569Z,99307.67
2018-05-17T08:20:15.104Z,99304.75
2018-05-17T08:22:42.855Z,99296.44
2018-05-17T08:25:10.445Z,99296.88
2018-05-17T08:27:38.010Z,99298.17
2018-05-17T08:30:06.008Z,99295.62
2018-05-17T08:32:33.592Z,99297.77
2018-05-17T08:35:01.184Z,99303.72
2018-05-17T08:37:28.776Z,99297.33
2018-05-17T08:39:56.336Z,99302.95
2018-05-17T08:42:23.896Z,99295.82
2018-05-17T08:44:52.250Z,99302.84
2018-05-17T08:47:19.797Z,99296.42
2018-05-17T08:49:47.364Z,99296.30
2018-05-17T08:52:15.091Z,99283.89
2018-05-17T08:54:42.646Z,99282.82
2018-05-17T08:57:10.201Z,99283.69
2018-05-17T08:59:38.166Z,99287.06
2018-05-17T09:02:05.711Z,99294.23
2018-05-17T09:04:33.262Z,99288.06
2018-05-17T09:07:01.019Z,99279.19
2018-05-17T09:09:28.601Z,99271.08
2018-05-17T09:11:56.171Z,99271.05
2018-05-17T09:14:23.802Z,99270.27
2018-05-17T09:16:51.355Z,99264.94
2018-05-17T09:19:18.922Z,99261.19
2018-05-17T09:21:46.537Z,99262.16
2018-05-17T09:24:14.097Z,99263.90
2018-05-17T09:26:41.674Z,99265.77
2018-05-17T09:29:09.335Z,99260.97
2018-05-17T09:31:36.867Z,99255.42
2018-05-17T09:34:04.469Z,99256.11
2018-05-17T09:36:32.386Z,99264.00
2018-05-17T09:38:59.985Z,99264.00
2018-05-17T09:41:27.625Z,99261.39
2018-05-17T09:43:55.689Z,99263.23
2018-05-17T09:46:23.296Z,99262.42
2018-05-17T09:55:34.081Z,99260.14
2018-05-17T09:58:01.693Z,99263.48
2018-05-17T10:00:31.208Z,99257.45
2018-05-17T10:02:59.915Z,99254.61
2018-05-17T10:05:27.520Z,99253.64
2018-05-17T10:07:55.045Z,99254.41
2018-05-17T10:10:22.646Z,99261.56
2018-05-17T10:12:50.215Z,99262.65
2018-05-17T10:15:17.769Z,99259.41
2018-05-17T10:17:45.393Z,99253.37
2018-05-17T10:20:12.948Z,99255.58
2018-05-17T10:22:40.519Z,99243.82
2018-05-17T10:25:08.169Z,99247.61
2018-05-17T10:27:35.744Z,99245.47
2018-05-17T10:30:03.463Z,99237.13
2018-05-17T10:32:31.237Z,99229.19
2018-05-17T10:34:58.799Z,99223.56
2018-05-17T10:37:26.385Z,99219.85
2018-05-17T10:39:54.463Z,99228.17
2018-05-17T10:42:22.018Z,99225.05
2018-05-17T10:44:49.589Z,99228.02
2018-05-17T10:47:17.375Z,99237.86
2018-05-17T10:49:44.922Z,99234.70
2018-05-17T10:52:12.465Z,99232.53
2018-05-17T10:54:40.565Z,99222.50
2018-05-17T10:57:08.114Z,99222.25
2018-05-17T10:59:35.718Z,99223.38
2018-05-17T11:02:03.290Z,99220.92
2018-05-17T11:04:30.854Z,99227.44
2018-05-17T11:06:58.408Z,99227.23
2018-05-17T11:09:25.977Z,99231.23
2018-05-17T11:11:53.576Z,99225.58
2018-05-17T11:14:21.135Z,99223.80
2018-05-17T11:16:49.122Z,99220.73
2018-05-17T11:19:16.678Z,99216.91
2018-05-17T11:21:44.252Z,99212.79
2018-05-17T11:24:12.132Z,99215.20
2018-05-17T11:26:39.733Z,99209.09
2018-05-17T11:29:07.263Z,99210.87
2018-05-17T11:31:34.868Z,99214.72
2018-05-17T11:34:02.435Z,99215.17
2018-05-17T11:36:30.015Z,99215.92
2018-05-17T11:38:57.607Z,99212.96
2018-05-17T11:41:25.164Z,99214.44
2018-05-17T11:43:52.823Z,99216.43
2018-05-17T11:46:20.430Z,99207.87
2018-05-17T11:48:47.989Z,99202.88
2018-05-17T11:51:15.538Z,99202.20
2018-05-17T11:53:43.115Z,99200.87
2018-05-17T11:56:10.658Z,99202.67
2018-05-17T11:58:38.234Z,99195.03
2018-05-17T12:01:06.165Z,99196.18
2018-05-17T12:03:33.908Z,99186.37
2018-05-17T12:06:01.474Z,99182.16
2018-05-17T12:08:29.062Z,99186.13
2018-05-17T12:10:56.627Z,99185.44
2018-05-17T12:13:24.194Z,99184.08
2018-05-17T12:15:51.808Z,99184.77
2018-05-17T12:18:19.369Z,99186.13
2018-05-17T12:20:46.955Z,99184.35
2018-05-17T12:23:14.623Z,99190.14
2018-05-17T12:25:42.182Z,99180.03
2018-05-17T12:28:09.708Z,99179.72
2018-05-17T12:30:37.534Z,99175.83
2018-05-17T12:33:05.105Z,99167.94
2018-05-17T12:35:32.666Z,99171.66
2018-05-17T12:38:00.295Z,99166.94
2018-05-17T12:40:27.853Z,99155.73
2018-05-17T12:42:55.425Z,99151.02
2018-05-17T12:45:23.165Z,99149.19
2018-05-17T12:47:50.767Z,99139.88
2018-05-17T12:50:18.325Z,99139.45
2018-05-17T12:52:46.319Z,99130.24
2018-05-17T12:55:13.872Z,99129.94
2018-05-17T12:57:41.458Z,99128.64
2018-05-17T13:00:09.062Z,99121.67
2018-05-17T13:02:39.938Z,99124.42
2018-05-17T13:05:24.290Z,99119.52
2018-05-17T13:07:51.873Z,99113.45
2018-05-17T13:10:19.502Z,99117.34
2018-05-17T13:12:47.411Z,99105.06
2018-05-17T13:15:15.014Z,99100.79
2018-05-17T13:17:42.570Z,99102.95
2018-05-17T13:20:12.558Z,99099.88
2018-05-17T13:22:40.134Z,99103.73
2018-05-17T13:25:07.723Z,99102.16
2018-05-17T13:27:35.591Z,99105.14
2018-05-17T13:30:03.166Z,99102.48
2018-05-17T13:32:30.733Z,99100.84
2018-05-17T13:34:58.324Z,99100.09
2018-05-17T13:37:25.905Z,99090.95
2018-05-17T13:39:53.458Z,99091.47
2018-05-17T13:42:21.186Z,99084.14
2018-05-17T13:44:48.738Z,99087.37
2018-05-17T13:47:16.296Z,99086.45
2018-05-17T13:49:43.945Z,99077.45
2018-05-17T13:52:11.482Z,99077.09
2018-05-17T13:54:39.048Z,99084.38
2018-05-17T13:57:06.641Z,99091.60
2018-05-17T13:59:34.185Z,99083.53
2018-05-17T14:02:01.737Z,99090.00
2018-05-17T14:04:29.539Z,99086.56
2018-05-17T14:06:57.090Z,99081.85
2018-05-17T14:09:24.633Z,99083.97
2018-05-17T14:11:52.382Z,99084.59
2018-05-17T14:14:19.945Z,99076.03
2018-05-17T14:16:47.490Z,99081.08
2018-05-17T14:19:15.250Z,99080.36
2018-05-17T14:21:42.822Z,99086.83
2018-05-17T14:24:10.386Z,99092.71
2018-05-17T14:26:37.969Z,99102.20
2018-05-17T14:29:05.544Z,99110.90
2018-05-17T14:31:33.124Z,99105.47
2018-05-17T14:34:00.902Z,99111.84
2018-05-17T14:36:28.450Z,99116.92
2018-05-17T14:38:56.106Z,99109.23
2018-05-17T14:41:24.281Z,99103.84
2018-05-17T14:43:51.837Z,99108.27
2018-05-17T14:46:19.482Z,99105.96
2018-05-17T14:48:47.381Z,99099.61
2018-05-17T14:51:15.032Z,99095.25
2018-05-17T14:53:43.269Z,99105.70
2018-05-17T14:56:11.268Z,99104.36
2018-05-17T14:58:38.844Z,99097.66
2018-05-17T15:01:06.499Z,99094.52
2018-05-17T15:03:34.327Z,99096.06
2018-05-17T15:06:01.917Z,99088.94
2018-05-17T15:08:29.510Z,99092.91
2018-05-17T15:10:59.342Z,99097.68
2018-05-17T15:13:24.775Z,99101.08
2018-05-17T15:15:52.442Z,99103.27
2018-05-17T15:18:20.222Z,99105.66
2018-05-17T15:20:47.801Z,99105.77
2018-05-17T15:23:15.394Z,99111.68
2018-05-17T15:25:44.198Z,99118.03
2018-05-17T15:28:11.772Z,99132.02
2018-05-17T15:30:39.374Z,99134.28
2018-05-17T15:33:07.082Z,99138.18
2018-05-17T15:35:34.708Z,99145.64
2018-05-17T15:38:02.440Z,99135.59
2018-05-17T15:40:30.070Z,99136.24
2018-05-17T15:43:00.987Z,99130.13
2018-05-17T15:45:28.666Z,99118.23
2018-05-17T15:47:56.375Z,99116.14
2018-05-17T15:50:24.028Z,99105.36
2018-05-17T15:52:51.591Z,99107.61
2018-05-17T15:55:24.102Z,99100.74
2018-05-17T15:57:54.922Z,99095.77
2018-05-17T16:00:22.667Z,99096.27
2018-05-17T16:02:50.985Z,99095.27
2018-05-17T16:05:18.573Z,99094.26
2018-05-17T16:07:52.189Z,99091.66
2018-05-17T16:10:19.768Z,99085.08
2018-05-17T16:12:47.338Z,99082.58
2018-05-17T16:15:15.119Z,99082.70
2018-05-17T16:17:42.607Z,99083.01
2018-05-17T16:20:10.194Z,99078.75
2018-05-17T16:22:38.175Z,99090.64
2018-05-17T16:25:05.783Z,99087.57
2018-05-17T16:27:33.359Z,99088.11
2018-05-17T16:30:01.012Z,99087.00
2018-05-17T16:32:28.586Z,99082.17
2018-05-17T16:34:56.171Z,99086.56
2018-05-17T16:37:24.150Z,99089.91
2018-05-17T16:39:51.735Z,99088.31
2018-05-17T16:42:20.261Z,99091.75
2018-05-17T16:44:47.890Z,99097.77
2018-05-17T16:47:15.482Z,99103.81
2018-05-17T16:49:43.105Z,99098.92
2018-05-17T16:52:10.859Z,99111.84
2018-05-17T16:54:38.430Z,99121.62
2018-05-17T16:57:06.082Z,99125.94
2018-05-17T16:59:33.866Z,99124.84
2018-05-17T17:02:01.478Z,99122.75
2018-05-17T17:04:29.051Z,99124.59
2018-05-17T17:07:00.371Z,99123.61
2018-05-17T17:09:27.978Z,99131.41
2018-05-17T17:11:55.604Z,99134.75
2018-05-17T17:14:23.392Z,99131.39
2018-05-17T17:16:50.975Z,99134.00
2018-05-17T17:19:18.538Z,99138.75
2018-05-17T17:21:46.507Z,99140.05
2018-05-17T17:24:14.089Z,99144.00
2018-05-17T17:26:47.755Z,99150.42
2018-05-17T17:29:15.342Z,99161.69
2018-05-17T17:31:42.930Z,99165.43
2018-05-17T17:34:10.720Z,99169.78
2018-05-17T17:36:38.456Z,99168.18
2018-05-17T17:39:06.898Z,99165.09
2018-05-17T17:41:34.922Z,99172.59
2018-05-17T17:44:02.490Z,99171.59
2018-05-17T17:46:30.165Z,99170.47
2018-05-17T17:48:57.776Z,99168.55
2018-05-17T17:51:25.364Z,99170.83
2018-05-17T17:53:52.928Z,99178.39
2018-05-17T17:56:20.526Z,99175.27
2018-05-17T17:58:48.098Z,99183.03
2018-05-17T18:01:16.579Z,99182.25
2018-05-17T18:03:44.332Z,99198.08
2018-05-17T18:06:11.967Z,99200.79
2018-05-17T18:08:39.579Z,99209.08
2018-05-17T18:11:07.586Z,99204.12
2018-05-17T18:13:35.180Z,99213.14
2018-05-17T18:16:02.763Z,99210.30
2018-05-17T18:18:31.398Z,99224.20
2018-05-17T18:20:58.958Z,99224.37
2018-05-17T18:23:26.552Z,99232.03
2018-05-17T18:25:54.438Z,99231.70
2018-05-17T18:28:22.171Z,99236.91
2018-05-17T18:30:49.828Z,99247.42
2018-05-17T18:33:17.499Z,99250.59
2018-05-17T18:35:45.223Z,99251.22
2018-05-17T18:38:12.825Z,99247.99
2018-05-17T18:40:41.486Z,99255.20
2018-05-17T18:43:09.948Z,99259.23
2018-05-17T18:45:43.681Z,99263.57
2018-05-17T18:48:11.652Z,99268.52
2018-05-17T18:50:40.226Z,99279.16
2018-05-17T18:53:11.099Z,99283.91
2018-05-17T18:55:40.149Z,99287.18
2018-05-17T18:58:07.831Z,99298.73
2018-05-17T19:00:35.496Z,99300.49
2018-05-17T19:03:12.203Z,99305.52
2018-05-17T19:05:40.068Z,99308.42
2018-05-17T19:08:07.902Z,99309.85
2018-05-17T19:10:35.574Z,99313.20
2018-05-17T19:13:03.242Z,99316.96
2018-05-17T19:15:31.030Z,99313.30
2018-05-17T19:17:58.716Z,99322.70
2018-05-17T19:20:26.410Z,99322.28
2018-05-17T19:22:54.101Z,99328.73
2018-05-17T19:25:22.721Z,99330.41
2018-05-17T19:27:50.464Z,99337.48
2018-05-17T19:30:18.263Z,99346.71
2018-05-17T19:32:45.936Z,99349.03
2018-05-17T19:35:13.603Z,99351.64
2018-05-17T19:37:41.557Z,99361.03
2018-05-17T19:40:11.691Z,99366.41
2018-05-17T19:42:54.124Z,99386.81
2018-05-17T19:45:21.933Z,99384.64
2018-05-17T19:50:30.065Z,99391.77
2018-05-17T19:52:58.039Z,99391.98
2018-05-17T19:55:25.596Z,99389.20
2018-05-17T19:57:53.296Z,99392.52
2018-05-17T20:00:22.491Z,99389.34
2018-05-17T20:02:50.469Z,99397.63
2018-05-17T20:05:26.244Z,99399.32
2018-05-17T20:07:54.296Z,99392.17
2018-05-17T20:10:22.045Z,99399.87
2018-05-17T20:12:51.731Z,99396.09
2018-05-17T20:15:21.104Z,99400.23
2018-05-17T20:17:48.749Z,99400.97
2018-05-17T20:20:19.135Z,99401.52
2018-05-17T20:22:46.975Z,99402.84
2018-05-17T20:25:14.687Z,99400.66
2018-05-17T20:27:42.605Z,99402.53
2018-05-17T20:30:10.227Z,99401.63
2018-05-17T20:32:37.919Z,99405.25
2018-05-17T20:35:05.599Z,99408.16
2018-05-17T20:37:34.273Z,99415.44
2018-05-17T20:40:01.898Z,99415.08
2018-05-17T20:42:29.758Z,99416.70
2018-05-17T20:44:57.432Z,99415.11
2018-05-17T20:47:25.049Z,99412.16
2018-05-17T20:49:52.744Z,99414.92
2018-05-17T20:52:22.442Z,99415.98
2018-05-17T20:54:50.852Z,99419.69
2018-05-17T20:57:19.125Z,99424.20
2018-05-17T20:59:46.950Z,99428.80
2018-05-17T21:02:14.527Z,99427.38
2018-05-17T21:04:42.414Z,99427.77
2018-05-17T21:07:10.060Z,99433.02
2018-05-17T21:09:37.678Z,99426.50
2018-05-17T21:12:05.494Z,99426.70
2018-05-17T21:14:33.203Z,99439.20
2018-05-17T21:17:00.907Z,99437.94
2018-05-17T21:19:28.596Z,99437.94
2018-05-17T21:21:56.226Z,99442.91
2018-05-17T21:24:24.921Z,99438.25
2018-05-17T21:26:53.027Z,99446.35
2018-05-17T21:29:20.616Z,99437.96
2018-05-17T21:31:48.277Z,99435.77
2018-05-17T21:34:15.951Z,99434.77
2018-05-17T21:36:44.617Z,99438.88
2018-05-17T21:39:12.329Z,99434.73
2018-05-17T21:41:40.263Z,99431.63
2018-05-17T21:44:08.009Z,99435.78
2018-05-17T21:46:35.650Z,99436.22
2018-05-17T21:49:03.332Z,99427.59
2018-05-17T21:51:30.975Z,99437.34
2018-05-17T21:53:58.615Z,99437.45
2018-05-17T21:56:26.795Z,99444.14
2018-05-17T21:58:54.385Z,99442.84
2018-05-17T22:01:31.778Z,99440.56
2018-05-17T22:03:59.504Z,99446.84
2018-05-17T22:06:27.167Z,99443.95
2018-05-17T22:08:55.223Z,99448.19
2018-05-17T22:11:22.907Z,99441.98
2018-05-17T22:13:51.561Z,99450.02
2018-05-17T22:16:21.453Z,99443.67
2018-05-17T22:18:49.146Z,99437.66
2018-05-17T22:21:16.771Z,99441.33
2018-05-17T22:23:44.627Z,99436.78
2018-05-17T22:26:12.308Z,99436.16
2018-05-17T22:28:39.970Z,99438.91
2018-05-17T22:31:07.714Z,99437.11
2018-05-17T22:33:35.336Z,99433.88
2018-05-17T22:36:03.009Z,99437.11
2018-05-17T22:38:30.664Z,99438.94
2018-05-17T22:40:58.504Z,99432.67
2018-05-17T22:43:26.233Z,99431.83
2018-05-17T22:45:54.010Z,99434.68
2018-05-17T22:48:21.699Z,99434.33
2018-05-17T22:50:49.358Z,99445.88
2018-05-17T22:53:17.169Z,99443.48
2018-05-17T22:55:44.860Z,99447.11
2018-05-17T22:58:24.716Z,99446.47
2018-05-17T23:00:52.483Z,99441.26
2018-05-17T23:03:20.098Z,99446.47
2018-05-17T23:05:48.016Z,99452.42
2018-05-17T23:08:15.668Z,99449.12
2018-05-17T23:10:43.316Z,99446.08
2018-05-17T23:13:11.139Z,99442.80
2018-05-17T23:15:38.863Z,99446.22
2018-05-17T23:18:06.475Z,99450.62
2018-05-17T23:20:34.610Z,99451.92
2018-05-17T23:23:07.882Z,99455.45
2018-05-17T23:25:37.984Z,99450.06
2018-05-17T23:28:05.763Z,99451.00
2018-05-17T23:30:33.372Z,99451.36
2018-05-17T23:33:01.280Z,99455.44
2018-05-17T23:35:28.878Z,99455.58
2018-05-17T23:37:56.537Z,99444.73
2018-05-17T23:40:36.398Z,99444.67
2018-05-17T23:43:03.996Z,99448.84
2018-05-17T23:45:31.578Z,99449.67
2018-05-17T23:47:59.488Z,99450.36
2018-05-17T23:50:27.116Z,99454.88
2018-05-17T23:52:54.792Z,99451.44
2018-05-17T23:55:22.488Z,99450.17
2018-05-17T23:57:50.178Z,99450.87
